createdAt,value
2018-04-06T00:00:41.177Z,101921.80
2018-04-06T00:03:10.301Z,101921.36
2018-04-06T00:05:39.471Z,101926.34
2018-04-06T00:08:07.741Z,101931.03
2018-04-06T00:10:36.060Z,101924.91
2018-04-06T00:13:05.168Z,101928.52
2018-04-06T00:15:33.844Z,101922.93
2018-04-06T00:18:02.507Z,101931.05
2018-04-06T00:20:31.093Z,101927.08
2018-04-06T00:23:00.486Z,101926.00
2018-04-06T00:25:29.546Z,101928.69
2018-04-06T00:27:57.799Z,101929.55
2018-04-06T00:30:26.881Z,101933.02
2018-04-06T00:32:55.154Z,101932.70
2018-04-06T00:35:23.451Z,101932.38
2018-04-06T00:37:52.858Z,101935.53
2018-04-06T00:40:21.140Z,101942.70
2018-04-06T00:42:50.232Z,101941.32
2018-04-06T00:45:18.703Z,101940.66
2018-04-06T00:47:47.092Z,101954.00
2018-04-06T00:50:15.390Z,101956.31
2018-04-06T00:52:44.404Z,101953.84
2018-04-06T00:55:13.452Z,101953.66
2018-04-06T00:57:42.520Z,101951.81
2018-04-06T01:00:11.669Z,101965.22
2018-04-06T01:02:39.941Z,101961.31
2018-04-06T01:05:09.413Z,101958.15
2018-04-06T01:07:38.240Z,101962.91
2018-04-06T01:10:07.278Z,101964.05
2018-04-06T01:12:35.571Z,101968.25
2018-04-06T01:15:04.035Z,101963.91
2018-04-06T01:17:32.324Z,101974.72
2018-04-06T01:20:00.892Z,101981.27
2018-04-06T01:22:29.412Z,101978.75
2018-04-06T01:24:57.688Z,101978.53
2018-04-06T01:27:27.177Z,101985.34
2018-04-06T01:29:55.901Z,101975.00
2018-04-06T01:32:24.647Z,101974.17
2018-04-06T01:34:52.936Z,101978.41
2018-04-06T01:37:21.228Z,101982.80
2018-04-06T01:39:49.787Z,101988.13
2018-04-06T01:42:18.105Z,101984.59
2018-04-06T01:44:47.659Z,101985.87
2018-04-06T01:47:17.662Z,101986.69
2018-04-06T01:49:46.699Z,101997.09
2018-04-06T01:52:15.929Z,101996.19
2018-04-06T01:54:44.211Z,101999.63
2018-04-06T01:57:13.173Z,102007.34
2018-04-06T01:59:41.432Z,102011.05
2018-04-06T02:02:09.944Z,102008.08
2018-04-06T02:04:38.217Z,102011.17
2018-04-06T02:07:07.941Z,102020.67
2018-04-06T02:09:36.971Z,102023.61
2018-04-06T02:12:06.391Z,102025.47
2018-04-06T02:14:36.817Z,102025.77
2018-04-06T02:17:06.931Z,102040.13
2018-04-06T02:19:36.060Z,102038.10
2018-04-06T02:22:04.349Z,102042.05
2018-04-06T02:24:32.665Z,102041.02
2018-04-06T02:27:00.904Z,102043.04
2018-04-06T02:29:29.492Z,102036.40
2018-04-06T02:31:58.925Z,102045.08
2018-04-06T02:34:27.720Z,102044.52
2018-04-06T02:36:56.052Z,102041.06
2018-04-06T02:39:24.334Z,102046.92
2018-04-06T02:41:52.660Z,102052.46
2018-04-06T02:44:20.987Z,102046.29
2018-04-06T02:46:49.370Z,102049.00
2018-04-06T02:49:17.645Z,102047.16
2018-04-06T02:51:45.920Z,102050.48
2018-04-06T02:54:14.326Z,102053.18
2018-04-06T02:56:42.603Z,102051.11
2018-04-06T02:59:10.961Z,102048.02
2018-04-06T03:01:39.227Z,102050.37
2018-04-06T03:04:07.516Z,102044.13
2018-04-06T03:06:36.099Z,102047.59
2018-04-06T03:09:04.396Z,102055.64
2018-04-06T03:11:32.668Z,102050.91
2018-04-06T03:14:00.940Z,102051.82
2018-04-06T03:16:29.315Z,102056.75
2018-04-06T03:18:58.128Z,102056.09
2018-04-06T03:21:26.419Z,102053.80
2018-04-06T03:23:55.580Z,102057.30
2018-04-06T03:26:24.050Z,102055.45
2018-04-06T03:28:52.345Z,102053.80
2018-04-06T03:31:20.625Z,102051.09
2018-04-06T03:33:49.611Z,102053.42
2018-04-06T03:36:17.877Z,102060.22
2018-04-06T03:38:46.217Z,102055.72
2018-04-06T03:41:14.523Z,102053.13
2018-04-06T03:43:42.778Z,102060.44
2018-04-06T03:46:12.748Z,102069.75
2018-04-06T03:48:41.379Z,102070.05
2018-04-06T03:51:11.509Z,102075.34
2018-04-06T03:53:41.053Z,102072.19
2018-04-06T03:56:09.448Z,102073.13
2018-04-06T03:58:37.972Z,102076.57
2018-04-06T04:01:07.235Z,102082.73
2018-04-06T04:03:35.511Z,102086.15
2018-04-06T04:06:03.774Z,102095.58
2018-04-06T04:08:32.876Z,102096.81
2018-04-06T04:11:01.148Z,102098.11
2018-04-06T04:13:29.983Z,102104.65
2018-04-06T04:15:59.621Z,102099.97
2018-04-06T04:18:27.893Z,102102.03
2018-04-06T04:20:56.972Z,102107.92
2018-04-06T04:23:25.567Z,102111.87
2018-04-06T04:25:55.683Z,102118.02
2018-04-06T04:28:25.299Z,102119.33
2018-04-06T04:30:54.340Z,102126.61
2018-04-06T04:33:22.765Z,102128.00
2018-04-06T04:35:51.590Z,102129.37
2018-04-06T04:38:21.259Z,102133.08
2018-04-06T04:40:49.551Z,102129.50
2018-04-06T04:43:18.630Z,102134.14
2018-04-06T04:45:46.887Z,102140.61
2018-04-06T04:48:15.866Z,102133.70
2018-04-06T04:50:44.969Z,102139.42
2018-04-06T04:53:14.090Z,102137.63
2018-04-06T04:55:42.667Z,102128.77
2018-04-06T04:58:10.931Z,102136.72
2018-04-06T05:00:39.276Z,102137.69
2018-04-06T05:03:08.487Z,102133.38
2018-04-06T05:05:37.203Z,102122.23
2018-04-06T05:08:05.816Z,102125.48
2018-04-06T05:10:34.342Z,102136.99
2018-04-06T05:13:02.604Z,102131.58
2018-04-06T05:15:30.869Z,102132.69
2018-04-06T05:17:59.954Z,102134.74
2018-04-06T05:20:29.728Z,102128.80
2018-04-06T05:22:58.828Z,102135.89
2018-04-06T05:25:27.115Z,102135.70
2018-04-06T05:27:55.398Z,102136.16
2018-04-06T05:30:24.433Z,102133.73
2018-04-06T05:32:52.868Z,102138.17
2018-04-06T05:35:21.152Z,102142.75
2018-04-06T05:37:49.737Z,102135.66
2018-04-06T05:40:18.012Z,102137.12
2018-04-06T05:42:46.307Z,102141.76
2018-04-06T05:45:15.480Z,102141.44
2018-04-06T05:47:44.708Z,102147.30
2018-04-06T05:50:13.784Z,102151.56
2018-04-06T05:52:42.104Z,102152.05
2018-04-06T05:55:10.468Z,102160.80
2018-04-06T05:57:39.312Z,102155.69
2018-04-06T06:00:07.612Z,102163.52
2018-04-06T06:02:35.948Z,102154.23
2018-04-06T06:05:04.214Z,102154.22
2018-04-06T06:07:33.039Z,102163.11
2018-04-06T06:10:01.296Z,102166.78
2018-04-06T06:12:29.578Z,102171.53
2018-04-06T06:14:58.080Z,102178.19
2018-04-06T06:17:26.670Z,102184.48
2018-04-06T06:19:55.738Z,102191.07
2018-04-06T06:22:24.252Z,102191.01
2018-04-06T06:24:52.529Z,102188.00
2018-04-06T06:27:22.529Z,102193.96
2018-04-06T06:29:50.913Z,102192.30
2018-04-06T06:32:19.340Z,102200.76
2018-04-06T06:34:48.380Z,102197.90
2018-04-06T06:37:18.301Z,102195.87
2018-04-06T06:39:46.602Z,102200.55
2018-04-06T06:42:15.925Z,102203.25
2018-04-06T06:47:18.758Z,102197.11
2018-04-06T06:49:47.689Z,102197.95
2018-04-06T06:52:15.960Z,102197.77
2018-04-06T06:54:44.241Z,102199.98
2018-04-06T06:57:12.536Z,102200.64
2018-04-06T06:59:40.888Z,102204.13
2018-04-06T07:02:09.607Z,102203.02
2018-04-06T07:04:38.156Z,102205.37
2018-04-06T07:07:06.540Z,102197.83
2018-04-06T07:09:34.814Z,102200.14
2018-04-06T07:12:03.185Z,102203.06
2018-04-06T07:14:31.463Z,102203.23
2018-04-06T07:17:00.271Z,102192.13
2018-04-06T07:19:28.675Z,102202.20
2018-04-06T07:21:57.768Z,102200.82
2018-04-06T07:24:26.076Z,102194.44
2018-04-06T07:26:56.436Z,102193.73
2018-04-06T07:29:25.030Z,102196.76
2018-04-06T07:31:55.299Z,102192.80
2018-04-06T07:34:24.884Z,102191.47
2018-04-06T07:36:53.156Z,102186.89
2018-04-06T07:39:21.435Z,102191.52
2018-04-06T07:41:50.001Z,102190.27
2018-04-06T07:44:18.339Z,102189.59
2018-04-06T07:46:46.836Z,102184.20
2018-04-06T07:49:15.371Z,102187.11
2018-04-06T07:51:44.332Z,102184.69
2018-04-06T07:54:13.384Z,102185.70
2018-04-06T07:56:41.936Z,102177.47
2018-04-06T07:59:13.893Z,102178.22
2018-04-06T08:01:42.812Z,102174.83
2018-04-06T08:04:11.260Z,102172.17
2018-04-06T08:06:40.547Z,102169.84
2018-04-06T08:09:09.836Z,102171.59
2018-04-06T08:11:38.112Z,102163.98
2018-04-06T08:14:06.899Z,102165.08
2018-04-06T08:16:35.950Z,102175.36
2018-04-06T08:19:04.308Z,102172.34
2018-04-06T08:21:32.710Z,102161.12
2018-04-06T08:24:01.669Z,102172.83
2018-04-06T08:26:29.943Z,102178.82
2018-04-06T08:28:59.160Z,102171.51
2018-04-06T08:31:27.451Z,102173.17
2018-04-06T08:36:30.552Z,102175.19
2018-04-06T08:38:58.828Z,102177.53
2018-04-06T08:41:27.819Z,102178.71
2018-04-06T08:43:56.928Z,102179.00
2018-04-06T08:46:25.705Z,102185.48
2018-04-06T08:48:53.988Z,102184.86
2018-04-06T08:51:23.239Z,102184.28
2018-04-06T08:53:52.288Z,102189.14
2018-04-06T08:56:20.560Z,102189.41
2018-04-06T08:58:49.156Z,102195.64
2018-04-06T09:01:17.995Z,102193.27
2018-04-06T09:03:46.272Z,102196.32
2018-04-06T09:06:15.213Z,102191.18
2018-04-06T09:08:44.282Z,102197.05
2018-04-06T09:11:16.382Z,102198.48
2018-04-06T09:13:44.640Z,102197.90
2018-04-06T09:16:13.938Z,102197.98
2018-04-06T09:18:43.145Z,102198.59
2018-04-06T09:21:11.454Z,102207.81
2018-04-06T09:23:40.180Z,102216.67
2018-04-06T09:26:08.588Z,102219.16
2018-04-06T09:28:37.722Z,102209.25
2018-04-06T09:31:06.068Z,102216.53
2018-04-06T09:33:36.298Z,102220.48
2018-04-06T09:36:05.304Z,102226.25
2018-04-06T09:38:33.568Z,102220.90
2018-04-06T09:41:02.167Z,102217.39
2018-04-06T09:43:30.460Z,102228.27
2018-04-06T09:45:59.713Z,102226.05
2018-04-06T09:48:28.096Z,102218.00
2018-04-06T09:50:56.386Z,102215.64
2018-04-06T09:53:24.666Z,102212.20
2018-04-06T09:55:52.983Z,102205.05
2018-04-06T09:58:22.089Z,102214.41
2018-04-06T10:00:56.609Z,102213.91
2018-04-06T10:03:25.858Z,102208.23
2018-04-06T10:05:54.256Z,102199.59
2018-04-06T10:08:23.341Z,102206.95
2018-04-06T10:10:52.770Z,102208.27
2018-04-06T10:13:21.036Z,102207.56
2018-04-06T10:15:50.739Z,102204.72
2018-04-06T10:18:19.307Z,102202.29
2018-04-06T10:20:48.416Z,102196.64
2018-04-06T10:23:17.599Z,102198.31
2018-04-06T10:25:46.592Z,102192.23
2018-04-06T10:28:15.684Z,102190.10
2018-04-06T10:30:43.958Z,102189.71
2018-04-06T10:33:12.282Z,102193.16
2018-04-06T10:35:41.144Z,102194.77
2018-04-06T10:38:09.554Z,102189.55
2018-04-06T10:40:39.529Z,102198.33
2018-04-06T10:43:07.792Z,102191.23
2018-04-06T10:45:36.087Z,102189.68
2018-04-06T10:48:04.360Z,102193.08
2018-04-06T10:50:32.932Z,102190.38
2018-04-06T10:53:01.221Z,102191.75
2018-04-06T10:55:30.328Z,102191.66
2018-04-06T10:57:59.336Z,102193.59
2018-04-06T11:00:27.596Z,102189.95
2018-04-06T11:02:55.864Z,102185.08
2018-04-06T11:05:25.171Z,102185.66
2018-04-06T11:07:54.037Z,102187.64
2018-04-06T11:10:24.716Z,102182.52
2018-04-06T11:12:52.972Z,102187.10
2018-04-06T11:15:21.304Z,102180.92
2018-04-06T11:17:49.644Z,102183.40
2018-04-06T11:20:19.046Z,102178.73
2018-04-06T11:22:49.164Z,102178.08
2018-04-06T11:25:18.389Z,102176.91
2018-04-06T11:27:46.991Z,102177.80
2018-04-06T11:30:15.337Z,102175.27
2018-04-06T11:32:43.620Z,102165.92
2018-04-06T11:35:13.217Z,102166.41
2018-04-06T11:37:42.837Z,102157.23
2018-04-06T11:40:13.285Z,102152.33
2018-04-06T11:42:41.628Z,102151.14
2018-04-06T11:45:09.883Z,102150.08
2018-04-06T11:47:38.216Z,102150.55
2018-04-06T11:50:06.512Z,102141.23
2018-04-06T11:52:34.782Z,102141.50
2018-04-06T11:55:03.099Z,102140.80
2018-04-06T11:57:32.386Z,102131.23
2018-04-06T12:00:01.960Z,102137.16
2018-04-06T12:02:31.074Z,102136.72
2018-04-06T12:05:00.128Z,102129.28
2018-04-06T12:07:28.408Z,102128.72
2018-04-06T12:09:57.400Z,102129.52
2018-04-06T12:12:26.780Z,102123.20
2018-04-06T12:14:55.085Z,102127.84
2018-04-06T12:17:23.555Z,102126.62
2018-04-06T12:19:51.837Z,102117.78
2018-04-06T12:22:20.112Z,102130.16
2018-04-06T12:24:48.608Z,102130.91
2018-04-06T12:27:18.146Z,102132.42
2018-04-06T12:29:48.751Z,102125.86
2018-04-06T12:32:17.019Z,102116.03
2018-04-06T12:34:45.607Z,102114.59
2018-04-06T12:37:14.193Z,102104.34
2018-04-06T12:39:44.116Z,102098.73
2018-04-06T12:42:12.438Z,102085.33
2018-04-06T12:44:42.794Z,102080.05
2018-04-06T12:47:11.089Z,102065.48
2018-04-06T12:49:39.370Z,102060.13
2018-04-06T12:52:08.145Z,102065.53
2018-04-06T12:54:36.437Z,102070.92
2018-04-06T12:57:04.716Z,102063.53
2018-04-06T12:59:33.706Z,102049.69
2018-04-06T13:02:02.456Z,102050.26
2018-04-06T13:04:31.592Z,102049.26
2018-04-06T13:07:00.181Z,102042.95
2018-04-06T13:09:28.568Z,102044.58
2018-04-06T13:11:57.343Z,102046.09
2018-04-06T13:14:25.650Z,102030.95
2018-04-06T13:16:54.108Z,102025.59
2018-04-06T13:19:22.393Z,102019.75
2018-04-06T13:21:50.708Z,102023.32
2018-04-06T13:24:20.619Z,102017.86
2018-04-06T13:26:48.935Z,102018.91
2018-04-06T13:29:17.256Z,102009.14
2018-04-06T13:31:45.828Z,102008.81
2018-04-06T13:34:14.143Z,101996.61
2018-04-06T13:36:43.190Z,102009.80
2018-04-06T13:39:11.585Z,102005.64
2018-04-06T13:41:40.621Z,101997.52
2018-04-06T13:44:09.676Z,102001.02
2018-04-06T13:46:38.488Z,101996.09
2018-04-06T13:49:06.704Z,102005.83
2018-04-06T13:51:36.104Z,101995.80
2018-04-06T13:54:05.016Z,101995.38
2018-04-06T13:56:33.309Z,102000.52
2018-04-06T13:59:01.603Z,101999.30
2018-04-06T14:01:29.981Z,101998.25
2018-04-06T14:03:58.247Z,101999.97
2018-04-06T14:06:26.525Z,101993.98
2018-04-06T14:08:54.847Z,101991.66
2018-04-06T14:11:24.728Z,101987.66
2018-04-06T14:13:54.712Z,101993.66
2018-04-06T14:16:24.648Z,101988.19
2018-04-06T14:18:53.789Z,101983.56
2018-04-06T14:21:22.158Z,101983.34
2018-04-06T14:23:50.467Z,101975.53
2018-04-06T14:26:20.413Z,101978.17
2018-04-06T14:28:48.959Z,101972.61
2018-04-06T14:31:18.350Z,101967.88
2018-04-06T14:33:46.661Z,101968.55
2018-04-06T14:36:14.957Z,101975.09
2018-04-06T14:38:43.853Z,101961.14
2018-04-06T14:41:12.120Z,101964.17
2018-04-06T14:43:40.386Z,101960.56
2018-04-06T14:46:09.098Z,101955.60
2018-04-06T14:48:37.732Z,101954.22
2018-04-06T14:51:06.789Z,101938.76
2018-04-06T14:53:35.358Z,101943.47
2018-04-06T14:56:03.795Z,101935.82
2018-04-06T14:58:32.931Z,101943.64
2018-04-06T15:01:03.393Z,101946.95
2018-04-06T15:03:32.629Z,101940.36
2018-04-06T15:06:01.668Z,101932.11
2018-04-06T15:08:29.961Z,101935.58
2018-04-06T15:10:58.782Z,101935.86
2018-04-06T15:13:28.605Z,101927.19
2018-04-06T15:15:57.936Z,101933.55
2018-04-06T15:18:26.225Z,101920.81
2018-04-06T15:20:54.522Z,101913.49
2018-04-06T15:23:22.860Z,101909.59
2018-04-06T15:25:51.149Z,101914.08
2018-04-06T15:28:19.437Z,101912.58
2018-04-06T15:30:47.837Z,101901.84
2018-04-06T15:33:16.516Z,101906.72
2018-04-06T15:35:45.414Z,101917.58
2018-04-06T15:38:13.820Z,101909.73
2018-04-06T15:40:42.100Z,101910.88
2018-04-06T15:43:10.374Z,101910.39
2018-04-06T15:45:39.532Z,101915.30
2018-04-06T15:48:09.396Z,101907.91
2018-04-06T15:50:38.664Z,101896.66
2018-04-06T15:53:07.037Z,101891.88
2018-04-06T15:55:35.311Z,101891.30
2018-04-06T15:58:03.592Z,101899.21
2018-04-06T16:00:31.929Z,101898.63
2018-04-06T16:03:00.387Z,101900.65
2018-04-06T16:05:28.695Z,101890.94
2018-04-06T16:07:57.650Z,101890.28
2018-04-06T16:10:25.932Z,101889.38
2018-04-06T16:12:54.760Z,101893.61
2018-04-06T16:15:23.065Z,101896.16
2018-04-06T16:17:51.363Z,101890.69
2018-04-06T16:20:20.011Z,101890.69
2018-04-06T16:22:49.015Z,101884.38
2018-04-06T16:25:17.690Z,101883.01
2018-04-06T16:27:47.188Z,101880.14
2018-04-06T16:30:15.456Z,101876.75
2018-04-06T16:32:47.168Z,101873.08
2018-04-06T16:35:15.442Z,101867.58
2018-04-06T16:37:44.309Z,101873.48
2018-04-06T16:40:14.248Z,101864.72
2018-04-06T16:42:42.568Z,101860.89
2018-04-06T16:45:11.901Z,101859.80
2018-04-06T16:47:41.680Z,101858.30
2018-04-06T16:50:10.883Z,101855.89
2018-04-06T16:52:40.031Z,101864.41
2018-04-06T16:55:08.316Z,101856.89
2018-04-06T16:57:36.668Z,101865.34
2018-04-06T17:00:05.086Z,101867.23
2018-04-06T17:02:33.356Z,101865.73
2018-04-06T17:05:02.669Z,101869.42
2018-04-06T17:07:31.770Z,101868.38
2018-04-06T17:10:00.069Z,101875.38
2018-04-06T17:12:29.161Z,101876.28
2018-04-06T17:14:58.274Z,101871.80
2018-04-06T17:17:27.443Z,101874.34
2018-04-06T17:19:56.690Z,101885.19
2018-04-06T17:22:25.020Z,101889.37
2018-04-06T17:24:54.037Z,101880.33
2018-04-06T17:27:23.116Z,101880.66
2018-04-06T17:29:52.213Z,101877.55
2018-04-06T17:32:21.248Z,101883.41
2018-04-06T17:34:49.588Z,101882.09
2018-04-06T17:37:18.145Z,101884.95
2018-04-06T17:39:46.605Z,101889.02
2018-04-06T17:42:14.871Z,101891.41
2018-04-06T17:44:43.297Z,101890.95
2018-04-06T17:47:11.582Z,101890.77
2018-04-06T17:49:39.856Z,101891.52
2018-04-06T17:52:08.229Z,101905.55
2018-04-06T17:54:37.412Z,101900.00
2018-04-06T17:57:06.439Z,101903.27
2018-04-06T17:59:34.723Z,101902.56
2018-04-06T18:02:03.207Z,101901.16
2018-04-06T18:04:32.844Z,101899.02
2018-04-06T18:07:01.444Z,101900.95
2018-04-06T18:09:30.497Z,101906.84
2018-04-06T18:11:59.729Z,101913.02
2018-04-06T18:14:28.762Z,101915.53
2018-04-06T18:16:57.112Z,101917.66
2018-04-06T18:19:28.840Z,101915.33
2018-04-06T18:21:58.653Z,101925.03
2018-04-06T18:24:27.724Z,101913.73
2018-04-06T18:26:56.152Z,101927.73
2018-04-06T18:29:24.688Z,101921.84
2018-04-06T18:31:53.472Z,101923.72
2018-04-06T18:34:21.790Z,101924.30
2018-04-06T18:36:51.065Z,101919.47
2018-04-06T18:39:19.874Z,101920.09
2018-04-06T18:41:50.472Z,101922.19
2018-04-06T18:44:18.756Z,101918.50
2018-04-06T18:46:47.673Z,101922.24
2018-04-06T18:49:17.688Z,101927.55
2018-04-06T18:51:45.969Z,101931.51
2018-04-06T18:54:14.840Z,101931.28
2018-04-06T18:56:44.184Z,101936.55
2018-04-06T18:59:14.902Z,101926.92
2018-04-06T19:01:44.275Z,101927.84
2018-04-06T19:04:12.570Z,101922.47
2018-04-06T19:06:41.333Z,101926.20
2018-04-06T19:09:09.699Z,101916.48
2018-04-06T19:11:39.504Z,101914.74
2018-04-06T19:14:07.769Z,101916.05
2018-04-06T19:16:37.297Z,101913.27
2018-04-06T19:19:05.573Z,101914.48
2018-04-06T19:21:34.600Z,101914.16
2018-04-06T19:24:02.904Z,101914.34
2018-04-06T19:26:32.543Z,101910.52
2018-04-06T19:29:00.802Z,101905.76
2018-04-06T19:31:30.478Z,101904.63
2018-04-06T19:33:58.793Z,101894.31
2018-04-06T19:36:27.152Z,101896.44
2018-04-06T19:38:56.656Z,101892.23
2018-04-06T19:41:25.324Z,101886.70
2018-04-06T19:43:53.634Z,101886.00
2018-04-06T19:46:22.469Z,101883.73
2018-04-06T19:48:50.747Z,101877.75
2018-04-06T19:51:19.765Z,101878.16
2018-04-06T19:53:48.340Z,101875.13
2018-04-06T19:56:17.366Z,101868.27
2018-04-06T19:58:46.405Z,101868.95
2018-04-06T20:01:14.878Z,101869.03
2018-04-06T20:03:43.164Z,101871.18
2018-04-06T20:06:12.288Z,101872.14
2018-04-06T20:08:41.573Z,101875.84
2018-04-06T20:11:09.842Z,101881.66
2018-04-06T20:13:38.988Z,101877.58
2018-04-06T20:16:07.300Z,101870.85
2018-04-06T20:18:35.573Z,101869.68
2018-04-06T20:21:04.545Z,101868.86
2018-04-06T20:23:32.845Z,101869.02
2018-04-06T20:26:01.556Z,101866.23
2018-04-06T20:28:29.839Z,101859.53
2018-04-06T20:30:58.319Z,101857.95
2018-04-06T20:33:27.340Z,101852.75
2018-04-06T20:35:55.913Z,101845.39
2018-04-06T20:38:24.284Z,101844.94
2018-04-06T20:40:52.558Z,101837.77
2018-04-06T20:43:20.830Z,101833.97
2018-04-06T20:45:49.249Z,101825.48
2018-04-06T20:48:18.028Z,101824.77
2018-04-06T20:50:46.591Z,101818.27
2018-04-06T20:53:43.089Z,101821.02
2018-04-06T20:56:12.419Z,101824.05
2018-04-06T20:58:40.680Z,101813.19
2018-04-06T21:01:09.790Z,101818.72
2018-04-06T21:03:38.109Z,101805.47
2018-04-06T21:06:06.450Z,101798.44
2018-04-06T21:08:34.717Z,101804.48
2018-04-06T21:11:03.366Z,101792.97
2018-04-06T21:13:32.009Z,101797.61
2018-04-06T21:16:00.819Z,101795.78
2018-04-06T21:18:29.088Z,101792.54
2018-04-06T21:20:57.352Z,101791.47
2018-04-06T21:23:26.381Z,101788.08
2018-04-06T21:25:55.077Z,101790.04
2018-04-06T21:28:23.997Z,101788.53
2018-04-06T21:30:53.438Z,101786.72
2018-04-06T21:33:21.707Z,101777.49
2018-04-06T21:35:49.996Z,101774.62
2018-04-06T21:38:18.288Z,101776.33
2018-04-06T21:40:46.645Z,101768.47
2018-04-06T21:43:14.937Z,101760.27
2018-04-06T21:45:43.220Z,101765.53
2018-04-06T21:48:11.528Z,101757.94
2018-04-06T21:50:41.228Z,101754.39
2018-04-06T21:53:09.671Z,101745.61
2018-04-06T21:55:38.696Z,101742.81
2018-04-06T21:58:07.089Z,101748.73
2018-04-06T22:00:36.061Z,101737.97
2018-04-06T22:03:04.342Z,101744.59
2018-04-06T22:05:32.608Z,101741.56
2018-04-06T22:08:00.873Z,101744.12
2018-04-06T22:10:29.263Z,101746.81
2018-04-06T22:12:57.622Z,101743.61
2018-04-06T22:15:27.455Z,101752.28
2018-04-06T22:17:55.839Z,101744.65
2018-04-06T22:20:24.542Z,101749.05
2018-04-06T22:22:53.046Z,101741.42
2018-04-06T22:25:21.400Z,101743.62
2018-04-06T22:27:50.264Z,101749.30
2018-04-06T22:30:18.659Z,101749.72
2018-04-06T22:32:46.957Z,101743.61
2018-04-06T22:35:15.219Z,101745.89
2018-04-06T22:37:43.683Z,101741.97
2018-04-06T22:40:11.948Z,101742.53
2018-04-06T22:42:40.212Z,101736.01
2018-04-06T22:45:09.283Z,101736.98
2018-04-06T22:47:37.932Z,101738.13
2018-04-06T22:50:06.333Z,101736.25
2018-04-06T22:52:34.633Z,101731.94
2018-04-06T22:55:03.388Z,101727.64
2018-04-06T22:57:32.171Z,101733.67
2018-04-06T23:00:01.101Z,101730.67
2018-04-06T23:02:29.736Z,101723.38
2018-04-06T23:04:58.025Z,101724.20
2018-04-06T23:07:27.568Z,101718.98
2018-04-06T23:09:56.263Z,101717.13
2018-04-06T23:12:24.564Z,101720.25
2018-04-06T23:14:53.609Z,101723.02
2018-04-06T23:17:21.972Z,101723.92
2018-04-06T23:19:50.356Z,101717.47
2018-04-06T23:22:19.556Z,101722.03
2018-04-06T23:24:47.845Z,101726.89
2018-04-06T23:27:16.128Z,101725.59
2018-04-06T23:29:44.508Z,101730.95
2018-04-06T23:32:12.784Z,101728.80
2018-04-06T23:34:41.131Z,101726.05
2018-04-06T23:37:10.969Z,101717.97
2018-04-06T23:39:39.763Z,101716.16
2018-04-06T23:42:08.541Z,101708.75
2018-04-06T23:44:37.148Z,101709.32
2018-04-06T23:47:06.153Z,101703.89
2018-04-06T23:49:34.929Z,101704.88
2018-04-06T23:52:03.719Z,101701.66
2018-04-06T23:54:32.483Z,101702.30
2018-04-06T23:57:00.853Z,101693.97
2018-04-06T23:59:29.809Z,101693.25
